Terminal Aerodrome Forecast
Issued by NWS

Home | Current Version | Previous Version | Graphics & Text | Print | Product List | Glossary On
Versions: 1 2 3 4 5 6 7 8 9 10 11 12 13 14 15
000
FTUS43 KBIS 071100
TAFMOT
TAF
KMOT 071136Z 0712/0812 27007KT P6SM SCT070 SCT100
     FM071500 29012KT P6SM VCTS SCT040CB SCT060 OVC100
     FM071800 31019G29KT P6SM VCTS BKN050CB BKN080
     FM080200 29012KT P6SM BKN060=

USA.gov is the U.S. government's official web portal to all federal, state and local government web resources and services.